sensor_id;sensor_type;location;lat;lon;timestamp;temperature;humidity
7077;DHT22;3579;48.956;9.154;2023-04-25T00:01:47;19.50;52.20
7077;DHT22;3579;48.956;9.154;2023-04-25T00:04:13;19.40;52.30
7077;DHT22;3579;48.956;9.154;2023-04-25T00:06:39;19.50;52.20
7077;DHT22;3579;48.956;9.154;2023-04-25T00:09:06;19.40;52.20
7077;DHT22;3579;48.956;9.154;2023-04-25T00:11:36;19.40;52.20
7077;DHT22;3579;48.956;9.154;2023-04-25T00:14:04;19.40;52.20
7077;DHT22;3579;48.956;9.154;2023-04-25T00:16:30;19.40;52.20
7077;DHT22;3579;48.956;9.154;2023-04-25T00:18:59;19.40;52.30
7077;DHT22;3579;48.956;9.154;2023-04-25T00:21:25;19.40;52.30
7077;DHT22;3579;48.956;9.154;2023-04-25T00:23:55;19.40;52.30
7077;DHT22;3579;48.956;9.154;2023-04-25T00:26:21;19.40;52.40
7077;DHT22;3579;48.956;9.154;2023-04-25T00:28:48;19.40;52.40
7077;DHT22;3579;48.956;9.154;2023-04-25T00:31:14;19.40;52.40
7077;DHT22;3579;48.956;9.154;2023-04-25T00:33:40;19.40;52.40
7077;DHT22;3579;48.956;9.154;2023-04-25T00:36:06;19.40;52.40
7077;DHT22;3579;48.956;9.154;2023-04-25T00:38:33;19.40;52.40
7077;DHT22;3579;48.956;9.154;2023-04-25T00:40:59;19.40;52.40
7077;DHT22;3579;48.956;9.154;2023-04-25T00:43:26;19.40;52.40
7077;DHT22;3579;48.956;9.154;2023-04-25T00:45:53;19.40;52.50
7077;DHT22;3579;48.956;9.154;2023-04-25T00:48:21;19.30;52.40
7077;DHT22;3579;48.956;9.154;2023-04-25T00:50:55;19.30;52.40
7077;DHT22;3579;48.956;9.154;2023-04-25T00:53:23;19.30;52.40
7077;DHT22;3579;48.956;9.154;2023-04-25T00:55:50;19.30;52.50
7077;DHT22;3579;48.956;9.154;2023-04-25T00:58:22;19.30;52.50
7077;DHT22;3579;48.956;9.154;2023-04-25T01:00:50;19.30;52.50
7077;DHT22;3579;48.956;9.154;2023-04-25T01:03:18;19.30;52.50
7077;DHT22;3579;48.956;9.154;2023-04-25T01:05:47;19.30;52.60
7077;DHT22;3579;48.956;9.154;2023-04-25T01:08:14;19.30;52.60
7077;DHT22;3579;48.956;9.154;2023-04-25T01:10:40;19.30;52.60
7077;DHT22;3579;48.956;9.154;2023-04-25T01:13:06;19.20;52.60
7077;DHT22;3579;48.956;9.154;2023-04-25T01:15:32;19.20;52.50
7077;DHT22;3579;48.956;9.154;2023-04-25T01:17:59;19.20;52.60
7077;DHT22;3579;48.956;9.154;2023-04-25T01:20:26;19.20;52.60
7077;DHT22;3579;48.956;9.154;2023-04-25T01:22:55;19.20;52.60
7077;DHT22;3579;48.956;9.154;2023-04-25T01:25:22;19.20;52.60
7077;DHT22;3579;48.956;9.154;2023-04-25T01:27:48;19.20;52.60
7077;DHT22;3579;48.956;9.154;2023-04-25T01:30:14;19.20;52.60
7077;DHT22;3579;48.956;9.154;2023-04-25T01:32:41;19.20;52.70
7077;DHT22;3579;48.956;9.154;2023-04-25T01:35:09;19.20;52.70
7077;DHT22;3579;48.956;9.154;2023-04-25T01:37:42;19.20;52.70
7077;DHT22;3579;48.956;9.154;2023-04-25T01:40:10;19.20;52.80
7077;DHT22;3579;48.956;9.154;2023-04-25T01:42:39;19.20;52.70
7077;DHT22;3579;48.956;9.154;2023-04-25T01:45:06;19.20;52.80
7077;DHT22;3579;48.956;9.154;2023-04-25T01:47:33;19.10;52.70
7077;DHT22;3579;48.956;9.154;2023-04-25T01:50:02;19.20;52.80
7077;DHT22;3579;48.956;9.154;2023-04-25T01:52:28;19.10;52.70
7077;DHT22;3579;48.956;9.154;2023-04-25T01:54:55;19.10;52.70
7077;DHT22;3579;48.956;9.154;2023-04-25T01:57:21;16.80;50.80
7077;DHT22;3579;48.956;9.154;2023-04-25T01:59:47;19.10;52.70
7077;DHT22;3579;48.956;9.154;2023-04-25T02:02:13;19.10;52.70
7077;DHT22;3579;48.956;9.154;2023-04-25T02:04:39;19.10;52.80
7077;DHT22;3579;48.956;9.154;2023-04-25T02:07:05;19.10;52.80
7077;DHT22;3579;48.956;9.154;2023-04-25T02:09:31;19.10;52.80
7077;DHT22;3579;48.956;9.154;2023-04-25T02:11:58;19.00;52.70
7077;DHT22;3579;48.956;9.154;2023-04-25T02:14:24;19.10;52.80
7077;DHT22;3579;48.956;9.154;2023-04-25T02:16:50;19.00;52.80
7077;DHT22;3579;48.956;9.154;2023-04-25T02:19:17;19.00;52.80
7077;DHT22;3579;48.956;9.154;2023-04-25T02:21:43;19.10;52.90
7077;DHT22;3579;48.956;9.154;2023-04-25T02:24:09;19.00;52.80
7077;DHT22;3579;48.956;9.154;2023-04-25T02:26:35;19.00;52.80
7077;DHT22;3579;48.956;9.154;2023-04-25T02:29:01;19.00;52.80
7077;DHT22;3579;48.956;9.154;2023-04-25T02:31:27;19.00;52.90
7077;DHT22;3579;48.956;9.154;2023-04-25T02:33:53;19.00;52.90
7077;DHT22;3579;48.956;9.154;2023-04-25T02:36:19;19.00;52.90
7077;DHT22;3579;48.956;9.154;2023-04-25T02:38:45;19.00;52.90
7077;DHT22;3579;48.956;9.154;2023-04-25T02:41:11;19.00;53.00
7077;DHT22;3579;48.956;9.154;2023-04-25T02:43:37;19.00;53.00
7077;DHT22;3579;48.956;9.154;2023-04-25T02:46:03;19.00;53.00
7077;DHT22;3579;48.956;9.154;2023-04-25T02:48:29;19.00;53.00
7077;DHT22;3579;48.956;9.154;2023-04-25T02:50:55;19.00;53.00
7077;DHT22;3579;48.956;9.154;2023-04-25T02:53:21;18.90;52.90
7077;DHT22;3579;48.956;9.154;2023-04-25T02:55:47;19.00;53.00
7077;DHT22;3579;48.956;9.154;2023-04-25T02:58:13;19.00;53.00
7077;DHT22;3579;48.956;9.154;2023-04-25T03:00:40;19.00;53.10
7077;DHT22;3579;48.956;9.154;2023-04-25T03:03:06;19.00;53.10
7077;DHT22;3579;48.956;9.154;2023-04-25T03:05:32;18.90;53.00
7077;DHT22;3579;48.956;9.154;2023-04-25T03:07:58;18.90;53.00
7077;DHT22;3579;48.956;9.154;2023-04-25T03:10:24;18.90;53.00
7077;DHT22;3579;48.956;9.154;2023-04-25T03:12:50;18.90;53.00
7077;DHT22;3579;48.956;9.154;2023-04-25T03:15:16;18.90;53.00
7077;DHT22;3579;48.956;9.154;2023-04-25T03:17:42;18.90;53.10
7077;DHT22;3579;48.956;9.154;2023-04-25T03:20:09;18.90;53.10
7077;DHT22;3579;48.956;9.154;2023-04-25T03:22:35;18.90;53.10
7077;DHT22;3579;48.956;9.154;2023-04-25T03:25:01;18.90;53.20
7077;DHT22;3579;48.956;9.154;2023-04-25T03:27:27;18.90;53.10
7077;DHT22;3579;48.956;9.154;2023-04-25T03:29:53;18.90;53.20
7077;DHT22;3579;48.956;9.154;2023-04-25T03:32:19;18.90;53.10
7077;DHT22;3579;48.956;9.154;2023-04-25T03:34:45;18.90;53.20
7077;DHT22;3579;48.956;9.154;2023-04-25T03:37:11;18.80;53.10
7077;DHT22;3579;48.956;9.154;2023-04-25T03:39:37;18.90;53.20
7077;DHT22;3579;48.956;9.154;2023-04-25T03:42:04;18.80;53.10
7077;DHT22;3579;48.956;9.154;2023-04-25T03:44:30;18.80;53.10
7077;DHT22;3579;48.956;9.154;2023-04-25T03:46:56;18.80;53.20
7077;DHT22;3579;48.956;9.154;2023-04-25T03:49:22;18.80;53.20
7077;DHT22;3579;48.956;9.154;2023-04-25T03:51:48;18.80;53.20
7077;DHT22;3579;48.956;9.154;2023-04-25T03:54:14;18.80;53.20
7077;DHT22;3579;48.956;9.154;2023-04-25T03:56:40;18.80;53.20
7077;DHT22;3579;48.956;9.154;2023-04-25T03:59:06;18.80;53.20
7077;DHT22;3579;48.956;9.154;2023-04-25T04:01:32;18.80;53.20
7077;DHT22;3579;48.956;9.154;2023-04-25T04:03:58;18.80;53.20
7077;DHT22;3579;48.956;9.154;2023-04-25T04:06:24;18.80;53.20
7077;DHT22;3579;48.956;9.154;2023-04-25T04:08:51;18.80;53.20
7077;DHT22;3579;48.956;9.154;2023-04-25T04:11:17;18.80;53.80
7077;DHT22;3579;48.956;9.154;2023-04-25T04:13:43;18.80;53.30
7077;DHT22;3579;48.956;9.154;2023-04-25T04:16:09;18.80;53.30
7077;DHT22;3579;48.956;9.154;2023-04-25T04:18:35;18.80;53.30
7077;DHT22;3579;48.956;9.154;2023-04-25T04:21:01;18.80;53.30
7077;DHT22;3579;48.956;9.154;2023-04-25T04:23:27;18.70;53.30
7077;DHT22;3579;48.956;9.154;2023-04-25T04:25:55;18.80;53.40
7077;DHT22;3579;48.956;9.154;2023-04-25T04:28:22;18.70;53.20
7077;DHT22;3579;48.956;9.154;2023-04-25T04:30:48;18.80;53.40
7077;DHT22;3579;48.956;9.154;2023-04-25T04:33:16;18.80;53.40
7077;DHT22;3579;48.956;9.154;2023-04-25T04:35:45;18.80;53.40
7077;DHT22;3579;48.956;9.154;2023-04-25T04:38:13;18.70;53.20
7077;DHT22;3579;48.956;9.154;2023-04-25T04:40:41;18.80;53.20
7077;DHT22;3579;48.956;9.154;2023-04-25T04:43:10;18.80;53.20
7077;DHT22;3579;48.956;9.154;2023-04-25T04:45:37;18.80;53.20
7077;DHT22;3579;48.956;9.154;2023-04-25T04:48:06;18.80;53.10
7077;DHT22;3579;48.956;9.154;2023-04-25T04:50:33;18.80;53.20
7077;DHT22;3579;48.956;9.154;2023-04-25T04:53:00;18.80;53.20
7077;DHT22;3579;48.956;9.154;2023-04-25T04:55:27;18.80;53.30
7077;DHT22;3579;48.956;9.154;2023-04-25T04:57:54;18.80;53.30
7077;DHT22;3579;48.956;9.154;2023-04-25T05:00:21;18.80;53.40
7077;DHT22;3579;48.956;9.154;2023-04-25T05:02:47;18.80;53.40
7077;DHT22;3579;48.956;9.154;2023-04-25T05:05:14;18.80;53.40
7077;DHT22;3579;48.956;9.154;2023-04-25T05:07:40;18.80;53.50
7077;DHT22;3579;48.956;9.154;2023-04-25T05:10:06;18.80;53.50
7077;DHT22;3579;48.956;9.154;2023-04-25T05:12:33;18.80;53.50
7077;DHT22;3579;48.956;9.154;2023-04-25T05:14:59;18.80;53.60
7077;DHT22;3579;48.956;9.154;2023-04-25T05:17:26;18.80;53.60
7077;DHT22;3579;48.956;9.154;2023-04-25T05:19:52;18.80;53.50
7077;DHT22;3579;48.956;9.154;2023-04-25T05:22:18;18.80;53.50
7077;DHT22;3579;48.956;9.154;2023-04-25T05:24:44;18.80;53.50
7077;DHT22;3579;48.956;9.154;2023-04-25T05:27:10;18.80;53.40
7077;DHT22;3579;48.956;9.154;2023-04-25T05:29:36;18.80;53.40
7077;DHT22;3579;48.956;9.154;2023-04-25T05:32:02;18.80;53.40
7077;DHT22;3579;48.956;9.154;2023-04-25T05:34:28;18.90;53.40
7077;DHT22;3579;48.956;9.154;2023-04-25T05:36:54;17.40;52.20
7077;DHT22;3579;48.956;9.154;2023-04-25T05:39:21;17.90;52.50
7077;DHT22;3579;48.956;9.154;2023-04-25T05:41:47;18.90;53.40
7077;DHT22;3579;48.956;9.154;2023-04-25T05:44:13;18.90;53.40
7077;DHT22;3579;48.956;9.154;2023-04-25T05:46:39;18.90;53.30
7077;DHT22;3579;48.956;9.154;2023-04-25T05:49:05;18.90;53.20
7077;DHT22;3579;48.956;9.154;2023-04-25T05:51:31;18.90;53.20
7077;DHT22;3579;48.956;9.154;2023-04-25T05:53:57;19.00;53.20
7077;DHT22;3579;48.956;9.154;2023-04-25T05:56:23;19.00;53.10
7077;DHT22;3579;48.956;9.154;2023-04-25T05:58:49;19.00;53.10
7077;DHT22;3579;48.956;9.154;2023-04-25T06:01:15;19.00;53.10
7077;DHT22;3579;48.956;9.154;2023-04-25T06:03:42;19.10;53.10
7077;DHT22;3579;48.956;9.154;2023-04-25T06:06:09;19.10;53.00
7077;DHT22;3579;48.956;9.154;2023-04-25T06:08:35;19.10;53.00
7077;DHT22;3579;48.956;9.154;2023-04-25T06:11:01;19.10;52.90
7077;DHT22;3579;48.956;9.154;2023-04-25T06:13:27;19.20;52.90
7077;DHT22;3579;48.956;9.154;2023-04-25T06:15:53;19.20;52.80
7077;DHT22;3579;48.956;9.154;2023-04-25T06:18:19;19.30;52.80
7077;DHT22;3579;48.956;9.154;2023-04-25T06:20:45;19.30;52.70
7077;DHT22;3579;48.956;9.154;2023-04-25T06:23:11;19.30;52.70
7077;DHT22;3579;48.956;9.154;2023-04-25T06:25:37;19.40;52.60
7077;DHT22;3579;48.956;9.154;2023-04-25T06:28:03;19.40;53.20
7077;DHT22;3579;48.956;9.154;2023-04-25T06:30:29;19.60;53.50
7077;DHT22;3579;48.956;9.154;2023-04-25T06:32:55;19.60;52.90
7077;DHT22;3579;48.956;9.154;2023-04-25T06:35:21;19.70;52.70
7077;DHT22;3579;48.956;9.154;2023-04-25T06:37:47;19.70;52.80
7077;DHT22;3579;48.956;9.154;2023-04-25T06:40:13;19.70;53.50
7077;DHT22;3579;48.956;9.154;2023-04-25T06:42:40;19.70;53.80
7077;DHT22;3579;48.956;9.154;2023-04-25T06:45:07;19.70;54.10
7077;DHT22;3579;48.956;9.154;2023-04-25T06:47:34;19.70;54.30
7077;DHT22;3579;48.956;9.154;2023-04-25T06:50:00;19.70;54.50
7077;DHT22;3579;48.956;9.154;2023-04-25T06:52:27;19.60;54.40
7077;DHT22;3579;48.956;9.154;2023-04-25T06:54:53;19.60;54.40
7077;DHT22;3579;48.956;9.154;2023-04-25T06:57:20;19.60;54.70
7077;DHT22;3579;48.956;9.154;2023-04-25T06:59:47;19.60;54.80
7077;DHT22;3579;48.956;9.154;2023-04-25T07:02:13;19.60;54.80
7077;DHT22;3579;48.956;9.154;2023-04-25T07:04:40;19.60;54.80
7077;DHT22;3579;48.956;9.154;2023-04-25T07:07:06;19.60;54.80
7077;DHT22;3579;48.956;9.154;2023-04-25T07:09:32;19.50;54.70
7077;DHT22;3579;48.956;9.154;2023-04-25T07:12:00;19.60;54.80
7077;DHT22;3579;48.956;9.154;2023-04-25T07:14:27;19.60;54.80
7077;DHT22;3579;48.956;9.154;2023-04-25T07:16:53;19.60;54.20
7077;DHT22;3579;48.956;9.154;2023-04-25T07:19:21;19.70;54.20
7077;DHT22;3579;48.956;9.154;2023-04-25T07:21:47;19.80;54.10
7077;DHT22;3579;48.956;9.154;2023-04-25T07:24:13;19.90;54.00
7077;DHT22;3579;48.956;9.154;2023-04-25T07:26:39;20.10;54.20
7077;DHT22;3579;48.956;9.154;2023-04-25T07:29:05;20.40;54.00
7077;DHT22;3579;48.956;9.154;2023-04-25T07:31:31;20.60;53.40
7077;DHT22;3579;48.956;9.154;2023-04-25T07:33:57;21.00;53.30
7077;DHT22;3579;48.956;9.154;2023-04-25T07:36:23;21.10;52.80
7077;DHT22;3579;48.956;9.154;2023-04-25T07:38:50;21.40;52.60
7077;DHT22;3579;48.956;9.154;2023-04-25T07:41:16;21.50;52.80
7077;DHT22;3579;48.956;9.154;2023-04-25T07:43:42;21.30;52.20
7077;DHT22;3579;48.956;9.154;2023-04-25T07:46:08;21.10;52.50
7077;DHT22;3579;48.956;9.154;2023-04-25T07:48:34;21.10;52.70
7077;DHT22;3579;48.956;9.154;2023-04-25T07:53:35;21.50;52.10
7077;DHT22;3579;48.956;9.154;2023-04-25T07:56:08;21.80;52.20
7077;DHT22;3579;48.956;9.154;2023-04-25T07:58:42;21.90;52.00
7077;DHT22;3579;48.956;9.154;2023-04-25T08:01:09;22.00;51.90
7077;DHT22;3579;48.956;9.154;2023-04-25T08:03:36;21.80;51.70
7077;DHT22;3579;48.956;9.154;2023-04-25T08:06:03;21.60;51.70
7077;DHT22;3579;48.956;9.154;2023-04-25T08:08:30;21.60;51.40
7077;DHT22;3579;48.956;9.154;2023-04-25T08:10:57;21.50;51.70
7077;DHT22;3579;48.956;9.154;2023-04-25T08:13:25;21.50;51.30
7077;DHT22;3579;48.956;9.154;2023-04-25T08:15:51;21.60;51.90
7077;DHT22;3579;48.956;9.154;2023-04-25T08:18:18;21.80;52.00
7077;DHT22;3579;48.956;9.154;2023-04-25T08:20:44;21.90;52.00
7077;DHT22;3579;48.956;9.154;2023-04-25T08:23:10;21.90;52.20
7077;DHT22;3579;48.956;9.154;2023-04-25T08:25:36;21.90;52.30
7077;DHT22;3579;48.956;9.154;2023-04-25T08:28:03;21.80;52.40
7077;DHT22;3579;48.956;9.154;2023-04-25T08:30:29;21.90;52.70
7077;DHT22;3579;48.956;9.154;2023-04-25T08:32:55;21.90;52.80
7077;DHT22;3579;48.956;9.154;2023-04-25T08:35:21;21.90;52.90
7077;DHT22;3579;48.956;9.154;2023-04-25T08:37:47;21.90;52.90
7077;DHT22;3579;48.956;9.154;2023-04-25T08:40:15;21.90;52.90
7077;DHT22;3579;48.956;9.154;2023-04-25T08:42:43;21.90;53.00
7077;DHT22;3579;48.956;9.154;2023-04-25T08:45:10;21.80;53.00
7077;DHT22;3579;48.956;9.154;2023-04-25T08:47:38;21.80;53.10
7077;DHT22;3579;48.956;9.154;2023-04-25T08:50:05;21.80;53.10
7077;DHT22;3579;48.956;9.154;2023-04-25T08:52:43;21.70;51.70
7077;DHT22;3579;48.956;9.154;2023-04-25T08:55:12;21.70;52.20
7077;DHT22;3579;48.956;9.154;2023-04-25T08:57:41;21.70;53.10
7077;DHT22;3579;48.956;9.154;2023-04-25T09:00:10;21.80;53.30
7077;DHT22;3579;48.956;9.154;2023-04-25T09:02:38;21.80;53.20
7077;DHT22;3579;48.956;9.154;2023-04-25T09:05:05;21.80;53.00
7077;DHT22;3579;48.956;9.154;2023-04-25T09:07:32;21.80;52.70
7077;DHT22;3579;48.956;9.154;2023-04-25T09:09:59;21.80;52.60
7077;DHT22;3579;48.956;9.154;2023-04-25T09:12:29;21.80;52.70
7077;DHT22;3579;48.956;9.154;2023-04-25T09:15:13;21.80;52.90
7077;DHT22;3579;48.956;9.154;2023-04-25T09:17:45;21.80;52.80
7077;DHT22;3579;48.956;9.154;2023-04-25T09:20:14;21.70;52.80
7077;DHT22;3579;48.956;9.154;2023-04-25T09:22:41;21.80;52.80
7077;DHT22;3579;48.956;9.154;2023-04-25T09:25:10;21.80;52.80
7077;DHT22;3579;48.956;9.154;2023-04-25T09:27:49;21.80;52.80
7077;DHT22;3579;48.956;9.154;2023-04-25T09:30:18;21.80;52.80
7077;DHT22;3579;48.956;9.154;2023-04-25T09:32:47;21.70;52.60
7077;DHT22;3579;48.956;9.154;2023-04-25T09:35:24;21.70;52.70
7077;DHT22;3579;48.956;9.154;2023-04-25T09:37:53;21.70;52.60
7077;DHT22;3579;48.956;9.154;2023-04-25T09:40:20;21.70;52.60
7077;DHT22;3579;48.956;9.154;2023-04-25T09:42:46;21.70;52.80
7077;DHT22;3579;48.956;9.154;2023-04-25T09:45:15;21.60;52.80
7077;DHT22;3579;48.956;9.154;2023-04-25T09:47:41;21.60;52.80
7077;DHT22;3579;48.956;9.154;2023-04-25T09:50:17;21.60;52.80
7077;DHT22;3579;48.956;9.154;2023-04-25T09:52:45;21.60;52.90
7077;DHT22;3579;48.956;9.154;2023-04-25T09:55:27;21.60;53.00
7077;DHT22;3579;48.956;9.154;2023-04-25T09:57:56;21.60;53.00
7077;DHT22;3579;48.956;9.154;2023-04-25T10:00:23;21.70;53.10
7077;DHT22;3579;48.956;9.154;2023-04-25T10:02:50;21.80;53.30
7077;DHT22;3579;48.956;9.154;2023-04-25T10:05:18;22.00;53.20
7077;DHT22;3579;48.956;9.154;2023-04-25T10:07:44;22.20;53.60
7077;DHT22;3579;48.956;9.154;2023-04-25T10:10:12;22.30;52.90
7077;DHT22;3579;48.956;9.154;2023-04-25T10:12:39;22.50;52.70
7077;DHT22;3579;48.956;9.154;2023-04-25T10:15:06;22.70;52.70
7077;DHT22;3579;48.956;9.154;2023-04-25T10:17:35;22.80;52.40
7077;DHT22;3579;48.956;9.154;2023-04-25T10:20:06;22.90;52.40
7077;DHT22;3579;48.956;9.154;2023-04-25T10:22:39;23.00;52.10
7077;DHT22;3579;48.956;9.154;2023-04-25T10:25:07;23.20;51.90
7077;DHT22;3579;48.956;9.154;2023-04-25T10:27:34;23.20;51.70
7077;DHT22;3579;48.956;9.154;2023-04-25T10:30:14;23.00;50.50
7077;DHT22;3579;48.956;9.154;2023-04-25T10:32:44;22.70;50.10
7077;DHT22;3579;48.956;9.154;2023-04-25T10:38:10;22.60;49.90
7077;DHT22;3579;48.956;9.154;2023-04-25T10:40:36;22.70;50.10
7077;DHT22;3579;48.956;9.154;2023-04-25T10:45:56;22.70;50.00
7077;DHT22;3579;48.956;9.154;2023-04-25T10:48:31;22.70;49.80
7077;DHT22;3579;48.956;9.154;2023-04-25T10:51:11;22.70;49.80
7077;DHT22;3579;48.956;9.154;2023-04-25T10:53:37;22.70;50.10
7077;DHT22;3579;48.956;9.154;2023-04-25T10:56:17;22.70;49.60
7077;DHT22;3579;48.956;9.154;2023-04-25T10:58:44;22.80;49.40
7077;DHT22;3579;48.956;9.154;2023-04-25T11:01:15;22.80;49.30
7077;DHT22;3579;48.956;9.154;2023-04-25T11:03:45;22.80;49.10
7077;DHT22;3579;48.956;9.154;2023-04-25T11:06:23;23.20;49.00
7077;DHT22;3579;48.956;9.154;2023-04-25T11:08:52;23.40;48.90
7077;DHT22;3579;48.956;9.154;2023-04-25T11:11:18;23.60;49.00
7077;DHT22;3579;48.956;9.154;2023-04-25T11:13:48;23.80;49.10
7077;DHT22;3579;48.956;9.154;2023-04-25T11:16:16;23.90;49.20
7077;DHT22;3579;48.956;9.154;2023-04-25T11:18:44;24.00;49.20
7077;DHT22;3579;48.956;9.154;2023-04-25T11:21:11;24.10;49.50
7077;DHT22;3579;48.956;9.154;2023-04-25T11:23:37;24.20;49.40
7077;DHT22;3579;48.956;9.154;2023-04-25T11:26:04;24.40;49.60
7077;DHT22;3579;48.956;9.154;2023-04-25T11:28:30;24.30;49.40
7077;DHT22;3579;48.956;9.154;2023-04-25T11:30:56;24.30;49.60
7077;DHT22;3579;48.956;9.154;2023-04-25T11:33:24;24.40;49.50
7077;DHT22;3579;48.956;9.154;2023-04-25T11:35:53;24.50;49.60
7077;DHT22;3579;48.956;9.154;2023-04-25T11:38:20;24.60;49.60
7077;DHT22;3579;48.956;9.154;2023-04-25T11:40:51;24.60;49.50
7077;DHT22;3579;48.956;9.154;2023-04-25T11:43:19;24.70;49.50
7077;DHT22;3579;48.956;9.154;2023-04-25T11:45:47;24.70;49.50
7077;DHT22;3579;48.956;9.154;2023-04-25T11:48:14;24.70;49.40
7077;DHT22;3579;48.956;9.154;2023-04-25T11:50:40;24.80;49.40
7077;DHT22;3579;48.956;9.154;2023-04-25T11:53:06;24.80;49.40
7077;DHT22;3579;48.956;9.154;2023-04-25T11:55:33;24.80;49.20
7077;DHT22;3579;48.956;9.154;2023-04-25T11:58:00;24.90;49.60
7077;DHT22;3579;48.956;9.154;2023-04-25T12:00:27;25.00;49.60
7077;DHT22;3579;48.956;9.154;2023-04-25T12:02:54;24.60;48.10
7077;DHT22;3579;48.956;9.154;2023-04-25T12:05:25;24.40;49.10
7077;DHT22;3579;48.956;9.154;2023-04-25T12:07:51;24.60;49.20
7077;DHT22;3579;48.956;9.154;2023-04-25T12:10:18;24.80;49.10
7077;DHT22;3579;48.956;9.154;2023-04-25T12:12:46;24.90;48.80
7077;DHT22;3579;48.956;9.154;2023-04-25T12:15:17;25.00;49.40
7077;DHT22;3579;48.956;9.154;2023-04-25T12:17:46;25.10;49.30
7077;DHT22;3579;48.956;9.154;2023-04-25T12:20:14;25.20;49.40
7077;DHT22;3579;48.956;9.154;2023-04-25T12:22:48;25.30;49.50
7077;DHT22;3579;48.956;9.154;2023-04-25T12:25:34;25.40;49.50
7077;DHT22;3579;48.956;9.154;2023-04-25T12:28:14;25.50;49.70
7077;DHT22;3579;48.956;9.154;2023-04-25T12:31:12;25.60;50.00
7077;DHT22;3579;48.956;9.154;2023-04-25T12:33:40;25.60;50.40
7077;DHT22;3579;48.956;9.154;2023-04-25T12:36:08;25.70;50.50
7077;DHT22;3579;48.956;9.154;2023-04-25T12:38:40;25.60;50.50
7077;DHT22;3579;48.956;9.154;2023-04-25T12:41:06;25.60;50.80
7077;DHT22;3579;48.956;9.154;2023-04-25T12:43:33;25.60;50.80
7077;DHT22;3579;48.956;9.154;2023-04-25T12:45:59;25.60;50.90
7077;DHT22;3579;48.956;9.154;2023-04-25T12:48:25;25.60;51.10
7077;DHT22;3579;48.956;9.154;2023-04-25T12:50:52;25.50;51.10
7077;DHT22;3579;48.956;9.154;2023-04-25T12:53:19;25.40;51.50
7077;DHT22;3579;48.956;9.154;2023-04-25T12:55:46;25.00;48.50
7077;DHT22;3579;48.956;9.154;2023-04-25T12:58:16;24.30;47.80
7077;DHT22;3579;48.956;9.154;2023-04-25T13:00:43;24.00;48.60
7077;DHT22;3579;48.956;9.154;2023-04-25T13:03:10;24.40;49.50
7077;DHT22;3579;48.956;9.154;2023-04-25T13:05:38;24.60;49.30
7077;DHT22;3579;48.956;9.154;2023-04-25T13:08:04;24.70;49.20
7077;DHT22;3579;48.956;9.154;2023-04-25T13:10:31;24.80;49.40
7077;DHT22;3579;48.956;9.154;2023-04-25T13:12:57;24.80;49.40
7077;DHT22;3579;48.956;9.154;2023-04-25T13:15:23;24.80;49.50
7077;DHT22;3579;48.956;9.154;2023-04-25T13:17:50;24.80;49.60
7077;DHT22;3579;48.956;9.154;2023-04-25T13:20:16;24.80;49.70
7077;DHT22;3579;48.956;9.154;2023-04-25T13:22:42;24.90;50.00
7077;DHT22;3579;48.956;9.154;2023-04-25T13:25:11;24.90;50.10
7077;DHT22;3579;48.956;9.154;2023-04-25T13:27:37;24.90;50.30
7077;DHT22;3579;48.956;9.154;2023-04-25T13:30:05;24.90;50.40
7077;DHT22;3579;48.956;9.154;2023-04-25T13:32:36;24.90;50.50
7077;DHT22;3579;48.956;9.154;2023-04-25T13:35:07;24.90;50.70
7077;DHT22;3579;48.956;9.154;2023-04-25T13:37:34;24.90;50.70
7077;DHT22;3579;48.956;9.154;2023-04-25T13:40:01;24.80;50.80
7077;DHT22;3579;48.956;9.154;2023-04-25T13:42:31;24.80;51.00
7077;DHT22;3579;48.956;9.154;2023-04-25T13:44:57;24.80;51.10
7077;DHT22;3579;48.956;9.154;2023-04-25T13:47:23;24.80;51.00
7077;DHT22;3579;48.956;9.154;2023-04-25T13:49:50;24.80;51.00
7077;DHT22;3579;48.956;9.154;2023-04-25T13:52:16;24.90;51.40
7077;DHT22;3579;48.956;9.154;2023-04-25T13:54:42;24.60;48.10
7077;DHT22;3579;48.956;9.154;2023-04-25T13:57:08;24.00;47.70
7077;DHT22;3579;48.956;9.154;2023-04-25T13:59:34;23.60;47.00
7077;DHT22;3579;48.956;9.154;2023-04-25T14:02:00;23.80;48.10
7077;DHT22;3579;48.956;9.154;2023-04-25T14:04:28;24.00;48.40
7077;DHT22;3579;48.956;9.154;2023-04-25T14:06:54;24.20;48.60
7077;DHT22;3579;48.956;9.154;2023-04-25T14:09:21;24.30;48.70
7077;DHT22;3579;48.956;9.154;2023-04-25T14:11:54;24.40;49.00
7077;DHT22;3579;48.956;9.154;2023-04-25T14:14:21;24.30;49.10
7077;DHT22;3579;48.956;9.154;2023-04-25T14:16:48;24.40;49.30
7077;DHT22;3579;48.956;9.154;2023-04-25T14:19:15;24.40;49.50
7077;DHT22;3579;48.956;9.154;2023-04-25T14:21:41;24.30;49.70
7077;DHT22;3579;48.956;9.154;2023-04-25T14:24:08;24.30;49.80
7077;DHT22;3579;48.956;9.154;2023-04-25T14:26:35;24.30;49.90
7077;DHT22;3579;48.956;9.154;2023-04-25T14:29:05;24.30;50.10
7077;DHT22;3579;48.956;9.154;2023-04-25T14:31:33;24.30;50.20
7077;DHT22;3579;48.956;9.154;2023-04-25T14:33:59;24.30;50.30
7077;DHT22;3579;48.956;9.154;2023-04-25T14:36:26;24.30;50.50
7077;DHT22;3579;48.956;9.154;2023-04-25T14:38:53;24.30;50.70
7077;DHT22;3579;48.956;9.154;2023-04-25T14:41:19;24.30;50.70
7077;DHT22;3579;48.956;9.154;2023-04-25T14:43:46;24.30;50.80
7077;DHT22;3579;48.956;9.154;2023-04-25T14:46:12;24.30;50.90
7077;DHT22;3579;48.956;9.154;2023-04-25T14:48:38;24.30;50.90
7077;DHT22;3579;48.956;9.154;2023-04-25T14:51:04;24.40;51.10
7077;DHT22;3579;48.956;9.154;2023-04-25T14:53:31;24.40;51.20
7077;DHT22;3579;48.956;9.154;2023-04-25T14:55:57;24.40;51.20
7077;DHT22;3579;48.956;9.154;2023-04-25T14:58:23;25.60;52.30
7077;DHT22;3579;48.956;9.154;2023-04-25T15:00:50;24.40;51.40
7077;DHT22;3579;48.956;9.154;2023-04-25T15:03:16;24.30;51.40
7077;DHT22;3579;48.956;9.154;2023-04-25T15:05:43;24.40;51.60
7077;DHT22;3579;48.956;9.154;2023-04-25T15:08:09;24.40;51.60
7077;DHT22;3579;48.956;9.154;2023-04-25T15:10:38;24.30;51.70
7077;DHT22;3579;48.956;9.154;2023-04-25T15:13:04;24.30;51.80
7077;DHT22;3579;48.956;9.154;2023-04-25T15:15:30;24.40;52.10
7077;DHT22;3579;48.956;9.154;2023-04-25T15:17:57;24.40;52.30
7077;DHT22;3579;48.956;9.154;2023-04-25T15:20:23;24.50;52.40
7077;DHT22;3579;48.956;9.154;2023-04-25T15:22:49;24.50;52.70
7077;DHT22;3579;48.956;9.154;2023-04-25T15:25:16;24.40;51.20
7077;DHT22;3579;48.956;9.154;2023-04-25T15:27:46;24.40;51.70
7077;DHT22;3579;48.956;9.154;2023-04-25T15:30:15;24.40;51.50
7077;DHT22;3579;48.956;9.154;2023-04-25T15:32:45;24.40;51.70
7077;DHT22;3579;48.956;9.154;2023-04-25T15:35:13;24.40;51.80
7077;DHT22;3579;48.956;9.154;2023-04-25T15:37:40;24.40;51.80
7077;DHT22;3579;48.956;9.154;2023-04-25T15:40:13;24.30;51.70
7077;DHT22;3579;48.956;9.154;2023-04-25T15:42:50;24.30;51.80
7077;DHT22;3579;48.956;9.154;2023-04-25T15:45:18;24.20;51.70
7077;DHT22;3579;48.956;9.154;2023-04-25T15:47:45;24.20;51.70
7077;DHT22;3579;48.956;9.154;2023-04-25T15:50:11;24.20;52.00
7077;DHT22;3579;48.956;9.154;2023-04-25T15:52:38;24.20;51.90
7077;DHT22;3579;48.956;9.154;2023-04-25T15:55:05;24.10;51.90
7077;DHT22;3579;48.956;9.154;2023-04-25T15:57:32;24.10;51.90
7077;DHT22;3579;48.956;9.154;2023-04-25T15:59:59;24.10;51.80
7077;DHT22;3579;48.956;9.154;2023-04-25T16:02:25;24.00;51.90
7077;DHT22;3579;48.956;9.154;2023-04-25T16:04:51;24.00;51.80
7077;DHT22;3579;48.956;9.154;2023-04-25T16:07:17;24.00;51.90
7077;DHT22;3579;48.956;9.154;2023-04-25T16:09:43;24.00;52.00
7077;DHT22;3579;48.956;9.154;2023-04-25T16:12:10;24.00;52.00